Time;durP1;ratioP1;P1;durP2;ratioP2;P2;SDS_P1;SDS_P2;PMS_P1;PMS_P2;Temp;Humidity;BMP_temperature;BMP_pressure;BME280_temperature;BME280_humidity;BME280_pressure;Samples;Min_cycle;Max_cycle;Signal;HPM_P1;HPM_P2
2021/11/18 00:00:01;;;;;;;7.07;5.68;;;;;;;;;;5055210;28;20029;-57
2021/11/18 00:02:27;;;;;;;8.30;6.35;;;;;;;;;;5053913;28;20033;-58
2021/11/18 00:04:54;;;;;;;7.75;6.38;;;;;;;;;;5054974;28;20107;-57
2021/11/18 00:07:21;;;;;;;7.90;6.28;;;;;;;;;;5054056;28;20493;-56
2021/11/18 00:09:47;;;;;;;8.13;7.28;;;;;;;;;;5054760;28;20475;-56
2021/11/18 00:12:13;;;;;;;8.20;6.85;;;;;;;;;;5054734;28;20094;-57
2021/11/18 00:14:39;;;;;;;8.38;6.47;;;;;;;;;;5054629;28;20056;-57
2021/11/18 00:17:05;;;;;;;7.40;6.22;;;;;;;;;;5054055;28;20025;-57
2021/11/18 00:19:31;;;;;;;8.00;7.20;;;;;;;;;;5054724;28;20025;-56
2021/11/18 00:21:57;;;;;;;8.60;6.97;;;;;;;;;;5054507;28;20041;-56
2021/11/18 00:24:23;;;;;;;9.20;8.02;;;;;;;;;;5054625;28;20069;-57
2021/11/18 00:26:54;;;;;;;10.95;8.68;;;;;;;;;;5054118;28;20137;-57
2021/11/18 00:29:20;;;;;;;11.57;8.98;;;;;;;;;;5054629;28;20490;-57
2021/11/18 00:31:46;;;;;;;9.68;8.52;;;;;;;;;;5054457;28;20170;-59
2021/11/18 00:34:13;;;;;;;13.18;8.00;;;;;;;;;;5054152;28;20383;-57
2021/11/18 00:36:39;;;;;;;9.90;7.93;;;;;;;;;;5053822;28;20451;-56
2021/11/18 00:39:06;;;;;;;11.52;8.88;;;;;;;;;;5054408;28;20024;-57
2021/11/18 00:41:33;;;;;;;10.45;7.63;;;;;;;;;;5054376;28;20048;-55
2021/11/18 00:43:59;;;;;;;16.95;7.22;;;;;;;;;;5054036;28;20451;-57
2021/11/18 00:46:25;;;;;;;9.40;7.72;;;;;;;;;;5053645;28;20100;-54
2021/11/18 00:48:51;;;;;;;11.02;9.07;;;;;;;;;;5053743;28;20052;-56
2021/11/18 00:51:18;;;;;;;9.13;7.15;;;;;;;;;;5053801;28;20028;-57
2021/11/18 00:53:47;;;;;;;10.18;7.90;;;;;;;;;;5054227;28;20062;-57
2021/11/18 00:56:13;;;;;;;13.15;8.85;;;;;;;;;;5053790;28;20033;-57
2021/11/18 00:58:39;;;;;;;11.98;8.85;;;;;;;;;;5053740;28;20029;-57
2021/11/18 01:01:06;;;;;;;9.65;7.65;;;;;;;;;;5054037;28;20091;-56
2021/11/18 01:03:33;;;;;;;8.07;7.28;;;;;;;;;;5053615;28;20040;-56
2021/11/18 01:05:59;;;;;;;9.68;8.23;;;;;;;;;;5054054;28;20029;-57
2021/11/18 01:08:25;;;;;;;9.27;8.20;;;;;;;;;;5053311;28;20134;-57
2021/11/18 01:10:51;;;;;;;11.45;9.38;;;;;;;;;;5053978;28;20452;-57
2021/11/18 01:13:18;;;;;;;10.75;8.13;;;;;;;;;;5053973;28;20078;-56
2021/11/18 01:15:45;;;;;;;11.65;8.73;;;;;;;;;;5053862;28;20029;-56
2021/11/18 01:18:11;;;;;;;12.52;7.82;;;;;;;;;;5052841;28;20041;-54
2021/11/18 01:20:37;;;;;;;9.95;7.25;;;;;;;;;;5053633;28;20479;-56
2021/11/18 01:23:04;;;;;;;10.48;7.80;;;;;;;;;;5053666;28;20438;-53
2021/11/18 01:25:30;;;;;;;9.15;7.40;;;;;;;;;;5053451;28;20464;-57
2021/11/18 01:27:56;;;;;;;9.43;7.45;;;;;;;;;;5052620;28;20082;-58
2021/11/18 01:30:24;;;;;;;12.73;8.98;;;;;;;;;;5053202;28;20025;-55
2021/11/18 01:32:51;;;;;;;8.27;7.20;;;;;;;;;;5053190;28;20032;-57
2021/11/18 01:35:18;;;;;;;10.50;6.97;;;;;;;;;;5053632;28;20495;-56
2021/11/18 01:37:44;;;;;;;10.82;8.25;;;;;;;;;;5052677;28;20028;-56
2021/11/18 01:40:11;;;;;;;10.00;6.80;;;;;;;;;;5053254;28;20040;-57
2021/11/18 01:42:37;;;;;;;8.75;7.10;;;;;;;;;;5053135;28;20052;-56
2021/11/18 01:45:04;;;;;;;7.57;6.25;;;;;;;;;;5053216;28;20463;-56
2021/11/18 01:47:30;;;;;;;13.15;6.95;;;;;;;;;;5052331;28;20051;-55
2021/11/18 01:49:56;;;;;;;9.25;7.75;;;;;;;;;;5053370;28;20029;-56
2021/11/18 01:52:23;;;;;;;8.60;5.93;;;;;;;;;;5053198;28;20298;-56
2021/11/18 01:54:50;;;;;;;10.52;7.25;;;;;;;;;;5053049;28;20025;-55
2021/11/18 01:57:16;;;;;;;8.52;6.13;;;;;;;;;;5052288;28;20032;-57
2021/11/18 01:59:45;;;;;;;10.27;7.68;;;;;;;;;;5052568;28;20029;-55
2021/11/18 02:02:12;;;;;;;9.45;6.88;;;;;;;;;;5052542;28;20439;-56
2021/11/18 02:04:48;;;;;;;8.05;6.15;;;;;;;;;;5052643;28;20139;-57
2021/11/18 02:07:14;;;;;;;9.88;8.20;;;;;;;;;;5052182;28;20020;-57
2021/11/18 02:09:42;;;;;;;7.90;6.30;;;;;;;;;;5052710;28;20029;-57
2021/11/18 02:12:13;;;;;;;8.63;6.13;;;;;;;;;;5052675;28;20305;-56
2021/11/18 02:14:39;;;;;;;8.90;6.90;;;;;;;;;;5052538;28;20189;-57
2021/11/18 02:17:06;;;;;;;7.85;6.95;;;;;;;;;;5051976;28;20144;-56
2021/11/18 02:19:38;;;;;;;10.18;7.07;;;;;;;;;;5052479;28;20025;-56
2021/11/18 02:22:04;;;;;;;9.18;7.35;;;;;;;;;;5052656;28;20033;-54
2021/11/18 02:24:33;;;;;;;9.57;8.05;;;;;;;;;;5052260;28;20036;-57
2021/11/18 02:26:59;;;;;;;9.57;7.05;;;;;;;;;;5051496;28;20058;-57
2021/11/18 02:29:25;;;;;;;9.57;6.60;;;;;;;;;;5052774;28;20043;-57
2021/11/18 02:32:02;;;;;;;8.45;6.82;;;;;;;;;;5052685;28;20471;-55
2021/11/18 02:34:37;;;;;;;9.80;6.63;;;;;;;;;;5052450;28;20037;-56
2021/11/18 02:37:03;;;;;;;6.53;5.30;;;;;;;;;;5051724;28;20104;-57
2021/11/18 02:39:29;;;;;;;6.95;5.38;;;;;;;;;;5051901;28;20116;-57
2021/11/18 02:41:55;;;;;;;8.88;6.50;;;;;;;;;;5052358;28;20534;-57
2021/11/18 02:44:21;;;;;;;6.72;5.55;;;;;;;;;;5052467;28;20319;-56
2021/11/18 02:46:47;;;;;;;7.68;5.93;;;;;;;;;;5051356;28;20041;-57
2021/11/18 02:49:13;;;;;;;8.70;6.20;;;;;;;;;;5052056;28;20427;-57
2021/11/18 02:51:39;;;;;;;5.90;5.28;;;;;;;;;;5052216;28;20092;-57
2021/11/18 02:54:06;;;;;;;9.15;6.28;;;;;;;;;;5051868;28;20064;-57
2021/11/18 02:56:32;;;;;;;7.90;5.45;;;;;;;;;;5051452;28;20379;-55
2021/11/18 02:58:59;;;;;;;5.90;5.00;;;;;;;;;;5052230;28;20029;-57
2021/11/18 03:01:29;;;;;;;7.05;6.35;;;;;;;;;;5052006;28;20408;-57
2021/11/18 03:03:55;;;;;;;11.52;7.07;;;;;;;;;;5051974;28;20029;-57
2021/11/18 03:06:21;;;;;;;8.82;6.32;;;;;;;;;;5051330;28;20056;-57
2021/11/18 03:08:48;;;;;;;8.15;6.05;;;;;;;;;;5051885;28;20447;-56
2021/11/18 03:11:14;;;;;;;6.85;6.15;;;;;;;;;;5052026;28;20032;-56
2021/11/18 03:13:40;;;;;;;8.73;7.00;;;;;;;;;;5053805;28;20021;-57
2021/11/18 03:16:08;;;;;;;8.48;7.63;;;;;;;;;;5055777;28;20063;-57
2021/11/18 03:18:34;;;;;;;8.23;6.65;;;;;;;;;;5055394;28;20123;-57
2021/11/18 03:21:00;;;;;;;7.53;5.63;;;;;;;;;;5055703;28;20493;-58
2021/11/18 03:23:27;;;;;;;8.55;7.07;;;;;;;;;;5055815;28;20375;-57
2021/11/18 03:25:53;;;;;;;8.75;6.85;;;;;;;;;;5055736;28;20352;-57
2021/11/18 03:28:21;;;;;;;7.13;6.22;;;;;;;;;;5055443;28;20040;-57
2021/11/18 03:30:48;;;;;;;8.93;6.38;;;;;;;;;;5055894;28;20359;-57
2021/11/18 03:33:17;;;;;;;9.45;7.72;;;;;;;;;;5055636;28;20411;-57
2021/11/18 03:35:43;;;;;;;8.50;6.75;;;;;;;;;;5055464;28;20037;-57
2021/11/18 03:38:11;;;;;;;7.55;6.75;;;;;;;;;;5054752;28;20060;-57
2021/11/18 03:40:37;;;;;;;7.55;6.43;;;;;;;;;;5055314;28;20486;-57
2021/11/18 03:43:03;;;;;;;9.90;8.40;;;;;;;;;;5055927;28;20057;-58
2021/11/18 03:45:30;;;;;;;9.75;7.75;;;;;;;;;;5055388;28;20350;-57
2021/11/18 03:47:56;;;;;;;9.85;7.53;;;;;;;;;;5054624;28;20036;-57
2021/11/18 03:50:23;;;;;;;10.45;8.55;;;;;;;;;;5055176;28;20104;-58
2021/11/18 03:52:49;;;;;;;9.43;8.25;;;;;;;;;;5055554;28;20025;-56
2021/11/18 03:55:15;;;;;;;10.50;8.57;;;;;;;;;;5055524;28;20490;-58
2021/11/18 03:57:42;;;;;;;15.13;8.73;;;;;;;;;;5054595;28;20048;-58
2021/11/18 04:00:10;;;;;;;13.32;8.55;;;;;;;;;;5055477;28;20474;-58
2021/11/18 04:02:36;;;;;;;14.88;9.18;;;;;;;;;;5055075;28;20037;-57
2021/11/18 04:05:02;;;;;;;11.25;9.00;;;;;;;;;;5054881;28;20021;-57
2021/11/18 04:07:33;;;;;;;11.23;9.63;;;;;;;;;;5054394;28;20044;-55
2021/11/18 04:09:59;;;;;;;16.85;9.93;;;;;;;;;;5055047;28;20028;-57
2021/11/18 04:12:25;;;;;;;12.70;9.55;;;;;;;;;;5055012;28;20399;-57
2021/11/18 04:14:51;;;;;;;13.75;9.90;;;;;;;;;;5054846;28;20036;-56
2021/11/18 04:17:17;;;;;;;10.68;8.32;;;;;;;;;;5053998;28;20053;-56
2021/11/18 04:19:43;;;;;;;13.90;10.23;;;;;;;;;;5054758;28;20068;-57
2021/11/18 04:22:09;;;;;;;15.77;10.90;;;;;;;;;;5054979;28;20029;-56
2021/11/18 04:24:35;;;;;;;12.27;11.02;;;;;;;;;;5054554;28;20021;-57
2021/11/18 04:27:02;;;;;;;12.40;10.57;;;;;;;;;;5054010;28;20084;-57
2021/11/18 04:29:28;;;;;;;13.02;11.35;;;;;;;;;;5054634;28;20037;-56
2021/11/18 04:31:59;;;;;;;15.25;10.80;;;;;;;;;;5049094;28;20031;-57
2021/11/18 04:34:25;;;;;;;17.60;12.20;;;;;;;;;;5053898;28;20056;-57
2021/11/18 04:36:51;;;;;;;15.68;9.40;;;;;;;;;;5052748;28;20387;-57
2021/11/18 04:39:17;;;;;;;12.75;10.57;;;;;;;;;;5054304;28;20025;-57
2021/11/18 04:41:44;;;;;;;12.88;10.35;;;;;;;;;;5054515;28;20033;-55
2021/11/18 04:44:10;;;;;;;11.82;8.77;;;;;;;;;;5052598;28;20055;-57
2021/11/18 04:46:36;;;;;;;12.90;10.68;;;;;;;;;;5053222;28;20033;-56
2021/11/18 04:49:02;;;;;;;13.38;9.98;;;;;;;;;;5054274;28;20029;-57
2021/11/18 04:51:28;;;;;;;13.35;10.32;;;;;;;;;;5050208;28;20017;-57
2021/11/18 04:53:55;;;;;;;11.43;10.23;;;;;;;;;;5054635;28;20029;-57
2021/11/18 04:56:21;;;;;;;11.82;9.95;;;;;;;;;;5053411;28;20118;-57
2021/11/18 04:58:47;;;;;;;14.85;9.70;;;;;;;;;;5054437;28;20060;-57
2021/11/18 05:01:14;;;;;;;16.48;11.68;;;;;;;;;;5053986;28;20064;-57
2021/11/18 05:03:40;;;;;;;14.48;11.10;;;;;;;;;;5054034;28;20036;-57
2021/11/18 05:06:06;;;;;;;11.68;9.38;;;;;;;;;;5053365;28;20025;-57
2021/11/18 05:08:33;;;;;;;12.15;10.05;;;;;;;;;;5053612;28;20044;-57
2021/11/18 05:10:59;;;;;;;14.75;12.65;;;;;;;;;;5054028;28;20029;-56
2021/11/18 05:13:26;;;;;;;13.13;10.32;;;;;;;;;;5053785;28;20029;-57
2021/11/18 05:15:53;;;;;;;16.73;10.25;;;;;;;;;;5054177;28;20482;-55
2021/11/18 05:18:20;;;;;;;16.40;10.63;;;;;;;;;;5052886;28;20117;-56
2021/11/18 05:20:46;;;;;;;12.27;9.77;;;;;;;;;;5053198;28;20471;-57
2021/11/18 05:23:13;;;;;;;13.95;11.30;;;;;;;;;;5053693;28;20472;-57
2021/11/18 05:25:39;;;;;;;14.10;10.95;;;;;;;;;;5053638;28;20059;-58
2021/11/18 05:28:05;;;;;;;12.77;10.07;;;;;;;;;;5052836;28;20033;-57
2021/11/18 05:30:33;;;;;;;15.23;10.65;;;;;;;;;;5053788;28;20120;-58
2021/11/18 05:33:00;;;;;;;17.55;10.73;;;;;;;;;;5053636;28;20032;-56
2021/11/18 05:35:27;;;;;;;13.13;10.02;;;;;;;;;;5052245;28;20091;-57
2021/11/18 05:37:53;;;;;;;13.38;9.93;;;;;;;;;;5052666;28;20106;-57
2021/11/18 05:40:19;;;;;;;12.70;9.38;;;;;;;;;;5053346;28;20467;-56
2021/11/18 05:42:47;;;;;;;14.68;11.52;;;;;;;;;;5053191;28;20029;-58
2021/11/18 05:45:14;;;;;;;13.38;11.27;;;;;;;;;;5053260;28;20033;-57
2021/11/18 05:47:40;;;;;;;16.73;11.43;;;;;;;;;;5052771;28;20056;-57
2021/11/18 05:50:07;;;;;;;16.58;12.35;;;;;;;;;;5052800;28;20057;-58
2021/11/18 05:52:33;;;;;;;14.10;8.98;;;;;;;;;;5053201;28;20138;-57
2021/11/18 05:54:59;;;;;;;13.80;11.23;;;;;;;;;;5052482;28;20112;-57
2021/11/18 05:57:25;;;;;;;14.90;11.63;;;;;;;;;;5051955;28;20441;-57
2021/11/18 05:59:51;;;;;;;12.50;9.50;;;;;;;;;;5053001;28;20033;-57
2021/11/18 06:02:17;;;;;;;12.63;9.73;;;;;;;;;;5052776;28;20364;-58
2021/11/18 06:04:43;;;;;;;14.27;11.90;;;;;;;;;;5052669;28;20029;-57
2021/11/18 06:07:09;;;;;;;17.80;12.00;;;;;;;;;;5050590;28;20545;-57
2021/11/18 06:09:35;;;;;;;14.48;11.68;;;;;;;;;;5051711;28;20051;-57
2021/11/18 06:12:01;;;;;;;16.08;12.00;;;;;;;;;;5049966;28;20037;-58
2021/11/18 06:14:29;;;;;;;13.50;11.55;;;;;;;;;;5047187;28;20033;-57
2021/11/18 06:16:55;;;;;;;14.48;11.18;;;;;;;;;;5051216;28;20032;-57
2021/11/18 06:19:20;;;;;;;11.80;10.13;;;;;;;;;;5051652;28;20029;-57
2021/11/18 06:21:48;;;;;;;14.40;10.73;;;;;;;;;;5052149;28;20482;-57
2021/11/18 06:24:15;;;;;;;18.60;11.20;;;;;;;;;;5052730;28;20474;-55
2021/11/18 06:26:41;;;;;;;14.57;10.93;;;;;;;;;;5051076;28;20056;-56
2021/11/18 06:29:07;;;;;;;15.88;12.10;;;;;;;;;;5050120;28;20041;-57
2021/11/18 06:31:33;;;;;;;13.90;12.13;;;;;;;;;;5051336;28;20051;-57
2021/11/18 06:34:00;;;;;;;13.80;12.10;;;;;;;;;;5051020;28;20032;-57
2021/11/18 06:36:26;;;;;;;18.35;12.02;;;;;;;;;;5050446;28;20037;-57
2021/11/18 06:38:53;;;;;;;13.52;11.15;;;;;;;;;;5051764;28;20110;-57
2021/11/18 06:41:20;;;;;;;16.13;11.88;;;;;;;;;;5051042;28;20116;-57
2021/11/18 06:43:47;;;;;;;12.90;11.48;;;;;;;;;;5047059;28;20115;-57
2021/11/18 06:46:14;;;;;;;14.23;10.93;;;;;;;;;;5042550;28;20448;-58
2021/11/18 06:48:40;;;;;;;15.75;10.43;;;;;;;;;;5050553;28;20077;-58
2021/11/18 06:51:08;;;;;;;16.35;12.18;;;;;;;;;;5051517;28;20573;-58
2021/11/18 06:53:34;;;;;;;14.05;10.73;;;;;;;;;;5051013;28;20113;-56
2021/11/18 06:56:01;;;;;;;13.55;11.20;;;;;;;;;;5051177;28;20475;-57
2021/11/18 06:58:27;;;;;;;15.23;10.50;;;;;;;;;;5050069;28;20087;-58
2021/11/18 07:00:53;;;;;;;12.98;9.32;;;;;;;;;;5051286;28;20037;-55
2021/11/18 07:03:19;;;;;;;17.10;11.70;;;;;;;;;;5051014;28;20048;-56
2021/11/18 07:05:46;;;;;;;12.00;10.55;;;;;;;;;;5049773;28;20032;-58
2021/11/18 07:08:12;;;;;;;13.10;9.73;;;;;;;;;;5048108;28;20032;-57
2021/11/18 07:10:40;;;;;;;14.02;9.80;;;;;;;;;;5050683;28;21571;-57
2021/11/18 07:13:06;;;;;;;12.30;9.77;;;;;;;;;;5050822;28;20025;-57
2021/11/18 07:15:32;;;;;;;18.40;10.13;;;;;;;;;;5051417;28;20029;-57
2021/11/18 07:17:59;;;;;;;9.95;8.95;;;;;;;;;;5050429;28;20032;-57
2021/11/18 07:20:25;;;;;;;12.30;9.90;;;;;;;;;;5050414;28;20036;-55
2021/11/18 07:22:51;;;;;;;14.40;10.68;;;;;;;;;;5050761;28;20041;-57
2021/11/18 07:25:20;;;;;;;15.65;10.18;;;;;;;;;;5050084;28;20029;-57
2021/11/18 07:27:46;;;;;;;12.07;9.55;;;;;;;;;;5050430;28;20065;-57
2021/11/18 07:30:13;;;;;;;13.40;10.10;;;;;;;;;;5051197;28;20033;-57
2021/11/18 07:32:39;;;;;;;13.88;10.23;;;;;;;;;;5050230;28;20032;-58
2021/11/18 07:35:06;;;;;;;14.27;10.88;;;;;;;;;;5050091;28;20040;-57
2021/11/18 07:37:31;;;;;;;11.82;9.75;;;;;;;;;;5049591;28;20048;-58
2021/11/18 07:39:58;;;;;;;18.60;10.65;;;;;;;;;;5050413;28;20035;-58
2021/11/18 07:42:24;;;;;;;13.10;9.45;;;;;;;;;;5050483;28;20434;-55
2021/11/18 07:44:51;;;;;;;11.43;9.13;;;;;;;;;;5050417;28;20395;-57
2021/11/18 07:47:17;;;;;;;15.32;10.50;;;;;;;;;;5049669;28;20033;-54
2021/11/18 07:49:43;;;;;;;14.48;10.30;;;;;;;;;;5051113;28;20041;-57
2021/11/18 07:52:10;;;;;;;11.50;9.23;;;;;;;;;;5050981;28;20379;-56
2021/11/18 07:54:36;;;;;;;13.13;10.30;;;;;;;;;;5048931;28;20403;-59
2021/11/18 07:57:02;;;;;;;12.30;9.57;;;;;;;;;;5050380;28;20029;-57
2021/11/18 07:59:28;;;;;;;16.92;11.38;;;;;;;;;;5052559;28;20124;-56
2021/11/18 08:01:54;;;;;;;13.05;9.50;;;;;;;;;;5052403;28;20036;-57
2021/11/18 08:04:21;;;;;;;14.00;10.85;;;;;;;;;;5054111;28;20455;-56
2021/11/18 08:06:47;;;;;;;13.57;8.55;;;;;;;;;;5054083;28;20029;-61
2021/11/18 08:09:14;;;;;;;11.60;8.98;;;;;;;;;;5053743;28;20033;-57
2021/11/18 08:11:43;;;;;;;11.57;8.57;;;;;;;;;;5049755;28;20067;-57
2021/11/18 08:14:10;;;;;;;11.68;9.95;;;;;;;;;;5054272;28;20086;-57
2021/11/18 08:16:36;;;;;;;15.05;10.25;;;;;;;;;;5053454;28;20035;-57
2021/11/18 08:19:02;;;;;;;15.20;11.27;;;;;;;;;;5054114;28;20025;-54
2021/11/18 08:21:28;;;;;;;15.18;10.95;;;;;;;;;;5054703;28;20041;-54
2021/11/18 08:23:56;;;;;;;16.90;11.35;;;;;;;;;;5054170;28;20044;-57
2021/11/18 08:26:23;;;;;;;19.10;10.77;;;;;;;;;;5052707;28;20029;-57
2021/11/18 08:28:50;;;;;;;17.85;10.38;;;;;;;;;;5054357;28;20045;-55
2021/11/18 08:31:16;;;;;;;14.48;11.27;;;;;;;;;;5054230;28;20029;-57
2021/11/18 08:33:43;;;;;;;20.90;12.00;;;;;;;;;;5054147;28;20032;-58
2021/11/18 08:36:09;;;;;;;13.60;10.88;;;;;;;;;;5053987;28;20025;-57
2021/11/18 08:38:35;;;;;;;17.77;10.65;;;;;;;;;;5054278;28;20093;-58
2021/11/18 08:41:04;;;;;;;18.92;12.35;;;;;;;;;;5053359;28;20036;-58
2021/11/18 08:43:30;;;;;;;17.58;11.25;;;;;;;;;;5053612;28;20068;-58
2021/11/18 08:45:56;;;;;;;25.73;14.75;;;;;;;;;;5053105;28;20105;-58
2021/11/18 08:48:23;;;;;;;23.13;14.05;;;;;;;;;;5052840;28;20079;-58
2021/11/18 08:50:50;;;;;;;24.00;14.30;;;;;;;;;;5053900;28;20029;-58
2021/11/18 08:53:16;;;;;;;22.63;13.18;;;;;;;;;;5052507;28;20096;-59
2021/11/18 08:55:43;;;;;;;22.40;13.95;;;;;;;;;;5053261;28;20029;-59
2021/11/18 08:58:12;;;;;;;28.05;14.02;;;;;;;;;;5052329;28;20040;-58
2021/11/18 09:00:46;;;;;;;17.48;11.27;;;;;;;;;;5052668;28;20482;-58
2021/11/18 09:03:12;;;;;;;24.25;13.32;;;;;;;;;;5052749;28;20094;-58
2021/11/18 09:05:38;;;;;;;23.90;13.90;;;;;;;;;;5052297;28;20048;-59
2021/11/18 09:08:05;;;;;;;23.65;13.50;;;;;;;;;;5052199;28;20051;-59
2021/11/18 09:10:32;;;;;;;20.33;13.50;;;;;;;;;;5051540;28;20108;-58
2021/11/18 09:12:58;;;;;;;38.50;17.13;;;;;;;;;;5053081;28;20036;-58
2021/11/18 09:15:26;;;;;;;24.52;13.90;;;;;;;;;;5053274;28;20041;-58
2021/11/18 09:17:53;;;;;;;25.77;15.73;;;;;;;;;;5052539;28;20029;-58
2021/11/18 09:20:20;;;;;;;21.02;14.27;;;;;;;;;;5047786;28;20040;-58
2021/11/18 09:22:46;;;;;;;25.77;13.57;;;;;;;;;;5053405;28;20041;-58
2021/11/18 09:25:13;;;;;;;21.50;12.85;;;;;;;;;;5051328;28;20548;-58
2021/11/18 09:27:41;;;;;;;23.30;14.32;;;;;;;;;;5052617;28;20029;-58
2021/11/18 09:30:09;;;;;;;19.83;12.80;;;;;;;;;;5052635;28;20056;-58
2021/11/18 09:32:35;;;;;;;22.50;14.45;;;;;;;;;;5053433;28;20025;-52
2021/11/18 09:35:04;;;;;;;22.63;14.55;;;;;;;;;;5052450;28;20454;-57
2021/11/18 09:37:30;;;;;;;19.90;14.27;;;;;;;;;;5051610;28;20063;-57
2021/11/18 09:39:56;;;;;;;21.75;15.02;;;;;;;;;;5052676;28;20041;-57
2021/11/18 09:42:25;;;;;;;26.83;14.65;;;;;;;;;;5052627;28;20036;-55
2021/11/18 09:45:11;;;;;;;26.30;14.40;;;;;;;;;;5052526;28;20029;-53
2021/11/18 09:48:06;;;;;;;22.00;13.35;;;;;;;;;;5052077;28;20037;-57
2021/11/18 09:50:45;;;;;;;24.33;14.20;;;;;;;;;;5034680;28;20280;-57
2021/11/18 09:53:20;;;;;;;23.80;14.43;;;;;;;;;;5053065;28;20124;-56
2021/11/18 09:55:46;;;;;;;18.70;12.55;;;;;;;;;;5052070;28;20083;-57
2021/11/18 09:58:12;;;;;;;21.00;13.73;;;;;;;;;;5051333;28;20041;-58
2021/11/18 10:01:03;;;;;;;23.10;13.63;;;;;;;;;;5051811;28;20463;-57
2021/11/18 10:03:33;;;;;;;24.35;14.90;;;;;;;;;;5052385;28;20017;-57
2021/11/18 10:06:02;;;;;;;20.25;14.98;;;;;;;;;;5047383;28;20064;-57
2021/11/18 10:08:30;;;;;;;22.23;14.10;;;;;;;;;;5051210;28;20068;-57
2021/11/18 10:11:08;;;;;;;29.95;16.45;;;;;;;;;;5051018;28;20032;-58
2021/11/18 10:13:33;;;;;;;21.90;13.30;;;;;;;;;;5051462;28;20152;-56
2021/11/18 10:16:12;;;;;;;19.60;13.77;;;;;;;;;;5051140;28;20033;-57
2021/11/18 10:18:39;;;;;;;18.20;12.95;;;;;;;;;;5049682;28;20040;-57
2021/11/18 10:21:17;;;;;;;12.45;11.10;;;;;;;;;;5052341;28;20427;-57
2021/11/18 10:23:43;;;;;;;17.42;11.57;;;;;;;;;;5051271;28;20033;-57
2021/11/18 10:26:12;;;;;;;14.80;11.63;;;;;;;;;;5043677;28;20067;-58
2021/11/18 10:28:41;;;;;;;14.85;11.65;;;;;;;;;;5051794;28;20029;-57
2021/11/18 10:31:17;;;;;;;16.35;12.18;;;;;;;;;;5051778;28;20506;-57
2021/11/18 10:33:49;;;;;;;13.52;9.48;;;;;;;;;;5052315;28;20032;-57
2021/11/18 10:36:18;;;;;;;14.63;11.02;;;;;;;;;;5046397;28;20053;-55
2021/11/18 10:38:58;;;;;;;17.00;11.25;;;;;;;;;;5051302;28;20112;-57
2021/11/18 10:41:26;;;;;;;14.73;10.82;;;;;;;;;;5054852;28;20471;-55
2021/11/18 10:44:06;;;;;;;21.50;13.55;;;;;;;;;;5051751;28;20487;-55
2021/11/18 10:46:32;;;;;;;;;;;;;;;;;;5049105;28;20023;-57
2021/11/18 10:49:00;;;;;;;13.38;9.02;;;;;;;;;;5054144;28;20007;-57
2021/11/18 10:51:32;;;;;;;15.27;9.85;;;;;;;;;;5052021;28;20036;-57
2021/11/18 10:53:59;;;;;;;12.55;9.63;;;;;;;;;;5051716;28;20057;-57
2021/11/18 10:56:31;;;;;;;14.98;8.45;;;;;;;;;;5050346;28;20488;-57
2021/11/18 10:59:06;;;;;;;11.10;7.90;;;;;;;;;;5050777;28;20025;-56
2021/11/18 11:01:37;;;;;;;13.20;8.77;;;;;;;;;;5050409;28;20033;-57
2021/11/18 11:04:05;;;;;;;8.73;7.63;;;;;;;;;;5050851;28;20475;-55
2021/11/18 11:06:32;;;;;;;12.23;9.65;;;;;;;;;;5051005;28;20445;-54
2021/11/18 11:09:10;;;;;;;10.13;7.88;;;;;;;;;;5050501;28;20029;-55
2021/11/18 11:11:48;;;;;;;11.85;8.80;;;;;;;;;;5051236;28;20032;-55
2021/11/18 11:14:34;;;;;;;11.45;8.25;;;;;;;;;;5051664;28;20025;-57
2021/11/18 11:17:02;;;;;;;10.13;8.43;;;;;;;;;;5047470;28;20494;-57
2021/11/18 11:19:28;;;;;;;10.23;7.97;;;;;;;;;;5050374;28;20036;-56
2021/11/18 11:22:10;;;;;;;9.57;7.85;;;;;;;;;;5051560;28;20442;-57
2021/11/18 11:24:53;;;;;;;9.98;7.20;;;;;;;;;;5051368;28;20057;-54
2021/11/18 11:27:38;;;;;;;10.73;6.82;;;;;;;;;;5050435;28;20048;-56
2021/11/18 11:30:24;;;;;;;15.25;9.30;;;;;;;;;;5042711;28;20044;-56
2021/11/18 11:32:53;;;;;;;12.68;9.30;;;;;;;;;;5050708;28;20028;-57
2021/11/18 11:35:19;;;;;;;12.32;9.93;;;;;;;;;;5054486;28;20043;-56
2021/11/18 11:37:57;;;;;;;16.08;10.73;;;;;;;;;;5054627;28;20104;-57
2021/11/18 11:40:26;;;;;;;10.75;8.95;;;;;;;;;;5048410;28;20029;-57
2021/11/18 11:43:18;;;;;;;10.30;8.18;;;;;;;;;;5055065;28;20029;-55
2021/11/18 11:45:48;;;;;;;13.82;9.88;;;;;;;;;;5053946;28;20490;-57
2021/11/18 11:48:34;;;;;;;14.07;8.52;;;;;;;;;;5054457;28;20025;-57
2021/11/18 11:51:06;;;;;;;13.93;9.40;;;;;;;;;;5055452;28;20065;-57
2021/11/18 11:53:56;;;;;;;10.05;8.82;;;;;;;;;;5053713;28;20463;-58
2021/11/18 11:56:35;;;;;;;11.88;8.30;;;;;;;;;;5053825;28;20383;-58
2021/11/18 11:59:17;;;;;;;9.75;8.70;;;;;;;;;;5054920;28;20028;-58
2021/11/18 12:01:56;;;;;;;8.75;6.93;;;;;;;;;;5051508;28;20099;-57
2021/11/18 12:04:22;;;;;;;8.07;7.28;;;;;;;;;;5053934;28;20602;-57
2021/11/18 12:07:07;;;;;;;10.65;7.45;;;;;;;;;;5053075;28;20036;-56
2021/11/18 12:09:39;;;;;;;10.32;7.50;;;;;;;;;;5052417;28;20471;-56
2021/11/18 12:12:20;;;;;;;8.20;7.22;;;;;;;;;;5052475;28;20171;-57
2021/11/18 12:14:47;;;;;;;9.43;7.55;;;;;;;;;;5050985;28;20260;-56
2021/11/18 12:17:17;;;;;;;9.55;7.47;;;;;;;;;;5052123;28;20422;-56
2021/11/18 12:19:55;;;;;;;9.90;7.72;;;;;;;;;;5053818;28;20471;-56
2021/11/18 12:22:39;;;;;;;9.55;7.82;;;;;;;;;;5054566;28;20486;-57
2021/11/18 12:25:05;;;;;;;8.73;7.20;;;;;;;;;;5038027;28;20379;-57
2021/11/18 12:27:33;;;;;;;9.57;6.80;;;;;;;;;;5048175;28;20029;-56
2021/11/18 12:30:19;;;;;;;8.32;6.10;;;;;;;;;;5046174;28;20283;-55
2021/11/18 12:32:57;;;;;;;7.13;6.38;;;;;;;;;;5051786;28;20039;-56
2021/11/18 12:35:32;;;;;;;6.90;5.93;;;;;;;;;;5049608;28;20044;-55
2021/11/18 12:38:00;;;;;;;9.07;5.55;;;;;;;;;;5048653;28;20053;-56
2021/11/18 12:40:29;;;;;;;7.45;5.78;;;;;;;;;;5053420;28;20113;-55
2021/11/18 12:43:07;;;;;;;7.53;6.60;;;;;;;;;;5052700;28;20037;-56
2021/11/18 12:45:46;;;;;;;9.57;6.07;;;;;;;;;;5049480;28;20039;-55
2021/11/18 12:48:17;;;;;;;8.90;6.05;;;;;;;;;;5051981;28;20036;-56
2021/11/18 12:50:47;;;;;;;8.85;6.28;;;;;;;;;;5058272;28;20799;-57
2021/11/18 12:53:21;;;;;;;9.02;5.80;;;;;;;;;;5055687;28;20028;-57
2021/11/18 12:56:06;;;;;;;10.43;7.13;;;;;;;;;;5057080;28;20463;-58
2021/11/18 12:58:37;;;;;;;8.00;6.28;;;;;;;;;;5051938;28;20406;-58
2021/11/18 13:01:21;;;;;;;7.18;6.28;;;;;;;;;;5052132;28;20391;-56
2021/11/18 13:03:47;;;;;;;5.28;4.55;;;;;;;;;;5052491;28;20048;-56
2021/11/18 13:06:33;;;;;;;8.77;5.05;;;;;;;;;;5051502;28;20098;-56
2021/11/18 13:09:00;;;;;;;6.30;4.95;;;;;;;;;;5038980;28;20047;-56
2021/11/18 13:11:26;;;;;;;5.95;5.30;;;;;;;;;;5051391;28;20029;-55
2021/11/18 13:14:13;;;;;;;6.03;4.93;;;;;;;;;;5053069;28;20057;-58
2021/11/18 13:16:54;;;;;;;4.95;4.05;;;;;;;;;;5049366;28;20029;-55
2021/11/18 13:19:26;;;;;;;6.28;4.60;;;;;;;;;;5044051;28;20040;-58
2021/11/18 13:22:18;;;;;;;6.15;5.07;;;;;;;;;;5051676;28;20041;-57
2021/11/18 13:24:44;;;;;;;8.95;5.57;;;;;;;;;;5022317;28;20033;-57
2021/11/18 13:27:12;;;;;;;6.03;4.47;;;;;;;;;;5051884;28;20025;-57
2021/11/18 13:29:44;;;;;;;5.05;4.03;;;;;;;;;;5050448;28;20033;-57
2021/11/18 13:32:12;;;;;;;12.10;5.70;;;;;;;;;;5051486;28;20029;-55
2021/11/18 13:34:43;;;;;;;6.63;5.13;;;;;;;;;;5052493;28;20085;-57
2021/11/18 13:37:08;;;;;;;;;;;;;;;;;;5052296;28;20037;-57
2021/11/18 13:39:34;;;;;;;6.80;5.38;;;;;;;;;;5051299;28;19924;-57
2021/11/18 13:42:00;;;;;;;6.75;4.68;;;;;;;;;;5052180;28;20037;-58
2021/11/18 13:44:26;;;;;;;7.55;5.15;;;;;;;;;;5051941;28;20035;-55
2021/11/18 13:46:58;;;;;;;5.70;5.07;;;;;;;;;;5050346;28;20033;-57
2021/11/18 13:49:25;;;;;;;6.65;5.43;;;;;;;;;;5048525;28;20029;-57
2021/11/18 13:51:56;;;;;;;6.32;4.88;;;;;;;;;;5051743;28;20423;-56
2021/11/18 13:54:24;;;;;;;6.50;4.95;;;;;;;;;;5051371;28;20098;-57
2021/11/18 13:56:56;;;;;;;9.43;4.80;;;;;;;;;;5050682;28;20027;-57
2021/11/18 13:59:25;;;;;;;5.45;4.07;;;;;;;;;;5052239;28;20044;-56
2021/11/18 14:01:54;;;;;;;12.98;5.22;;;;;;;;;;5049191;28;20108;-57
2021/11/18 14:04:25;;;;;;;4.72;4.00;;;;;;;;;;5052698;28;20044;-56
2021/11/18 14:06:51;;;;;;;;;;;;;;;;;;5051618;28;20383;-56
2021/11/18 14:09:20;;;;;;;8.32;5.80;;;;;;;;;;5052138;28;19919;-57
2021/11/18 14:11:51;;;;;;;9.25;7.30;;;;;;;;;;5052686;28;20037;-55
2021/11/18 14:14:17;;;;;;;;;;;;;;;;;;5052605;28;20025;-56
2021/11/18 14:16:44;;;;;;;14.73;9.10;;;;;;;;;;5046945;28;19963;-56
2021/11/18 14:19:12;;;;;;;12.70;8.77;;;;;;;;;;5052341;28;20029;-56
2021/11/18 14:22:01;;;;;;;10.55;8.35;;;;;;;;;;5051193;28;20075;-57
2021/11/18 14:24:33;;;;;;;10.07;8.07;;;;;;;;;;5051799;28;20033;-57
2021/11/18 14:27:00;;;;;;;11.60;7.85;;;;;;;;;;5050015;28;20438;-56
2021/11/18 14:29:48;;;;;;;16.85;9.57;;;;;;;;;;5047590;28;20033;-57
2021/11/18 14:32:14;;;;;;;13.95;8.57;;;;;;;;;;5051827;28;20679;-57
2021/11/18 14:34:45;;;;;;;12.30;8.32;;;;;;;;;;5050241;28;20033;-56
2021/11/18 14:37:26;;;;;;;11.20;8.52;;;;;;;;;;5046472;28;20048;-55
2021/11/18 14:39:54;;;;;;;9.75;7.97;;;;;;;;;;5051207;28;20124;-56